Time;durP1;ratioP1;P1;durP2;ratioP2;P2;SDS_P1;SDS_P2;PMS_P1;PMS_P2;Temp;Humidity;BMP_temperature;BMP_pressure;BME280_temperature;BME280_humidity;BME280_pressure;Samples;Min_cycle;Max_cycle;Signal;HPM_P1;HPM_P2
2022/03/05 00:00:45;;;;;;;18.90;11.13;;;-0.20;99.90;;;;;;5092958;28;20044;-90
2022/03/05 00:03:11;;;;;;;19.75;11.30;;;-0.20;99.90;;;;;;5094192;28;20039;-90
2022/03/05 00:05:39;;;;;;;20.85;10.43;;;-0.30;99.90;;;;;;5098117;28;20027;-89
2022/03/05 00:08:06;;;;;;;19.23;10.55;;;-0.20;99.90;;;;;;5097042;28;20024;-89
2022/03/05 00:10:33;;;;;;;21.45;10.88;;;-0.20;99.90;;;;;;5098302;28;20028;-89
2022/03/05 00:12:59;;;;;;;26.23;11.75;;;-0.20;99.90;;;;;;5096788;28;20486;-90
2022/03/05 00:15:28;;;;;;;20.48;11.30;;;-0.20;99.90;;;;;;5080179;28;20059;-89
2022/03/05 00:17:56;;;;;;;22.38;11.88;;;-0.30;99.90;;;;;;5096996;28;20048;-89
2022/03/05 00:20:23;;;;;;;23.27;11.55;;;-0.30;99.90;;;;;;5096768;28;20016;-89
2022/03/05 00:22:52;;;;;;;23.15;12.50;;;-0.30;99.90;;;;;;5096776;28;20031;-88
2022/03/05 00:25:20;;;;;;;21.13;11.85;;;-0.30;99.90;;;;;;5079981;28;20035;-89
2022/03/05 00:27:46;;;;;;;25.15;12.00;;;-0.30;99.90;;;;;;5096563;28;20040;-89
2022/03/05 00:30:12;;;;;;;24.13;12.32;;;-0.30;99.90;;;;;;5096556;28;20093;-89
2022/03/05 00:32:38;;;;;;;24.65;12.65;;;-0.30;99.90;;;;;;5096532;28;20020;-88
2022/03/05 00:35:05;;;;;;;25.85;13.07;;;-0.30;99.90;;;;;;5096910;28;20489;-93
2022/03/05 00:37:32;;;;;;;24.40;12.55;;;-0.30;99.90;;;;;;5096270;28;20035;-90
2022/03/05 00:39:57;;;;;;;24.92;13.20;;;-0.40;99.90;;;;;;5096539;28;20531;-89
2022/03/05 00:42:23;;;;;;;23.95;12.48;;;-0.40;99.90;;;;;;5096453;28;20025;-89
2022/03/05 00:44:49;;;;;;;25.63;12.52;;;-0.40;99.90;;;;;;5096455;28;20466;-89
2022/03/05 00:47:16;;;;;;;26.08;13.55;;;-0.40;99.90;;;;;;5096201;28;20031;-88
2022/03/05 00:49:41;;;;;;;23.63;13.40;;;-0.40;99.90;;;;;;5097610;28;20046;-89
2022/03/05 00:52:08;;;;;;;26.25;14.57;;;-0.40;99.90;;;;;;5097318;28;20079;-89
2022/03/05 00:54:34;;;;;;;24.40;12.45;;;-0.40;99.90;;;;;;5096153;28;20524;-89
2022/03/05 00:56:59;;;;;;;24.20;13.10;;;-0.30;99.90;;;;;;5097277;28;20520;-89
2022/03/05 00:59:25;;;;;;;29.63;14.27;;;-0.40;99.90;;;;;;5096038;28;20024;-89
2022/03/05 01:01:51;;;;;;;25.67;13.18;;;-0.30;99.90;;;;;;5097191;28;20027;-90
2022/03/05 01:04:17;;;;;;;22.42;12.38;;;-0.40;99.90;;;;;;5095624;28;20028;-89
2022/03/05 01:06:42;;;;;;;25.77;12.98;;;-0.40;99.90;;;;;;5096977;28;20030;-89
2022/03/05 01:09:08;;;;;;;25.10;12.70;;;-0.50;99.90;;;;;;5095925;28;20525;-88
2022/03/05 01:11:34;;;;;;;24.05;13.13;;;-0.50;99.90;;;;;;5095887;28;20020;-90
2022/03/05 01:14:00;;;;;;;26.05;13.20;;;-0.50;99.90;;;;;;5095668;28;20056;-89
2022/03/05 01:16:26;;;;;;;26.60;14.27;;;-0.50;99.90;;;;;;5095825;28;20024;-88
2022/03/05 01:18:51;;;;;;;27.08;13.32;;;-0.50;99.90;;;;;;5096845;28;20095;-89
2022/03/05 01:21:17;;;;;;;27.27;14.30;;;-0.50;99.90;;;;;;5095786;28;20074;-89
2022/03/05 01:23:43;;;;;;;27.65;14.50;;;-0.50;99.90;;;;;;5095277;28;20051;-89
2022/03/05 01:26:09;;;;;;;27.60;13.90;;;-0.50;99.90;;;;;;5095574;28;20563;-89
2022/03/05 01:28:35;;;;;;;28.17;13.23;;;-0.50;99.90;;;;;;5096443;28;20024;-88
2022/03/05 01:31:01;;;;;;;28.45;13.68;;;-0.50;99.90;;;;;;5095583;28;20435;-89
2022/03/05 01:33:27;;;;;;;30.58;13.25;;;-0.50;99.90;;;;;;5095382;28;20094;-89
2022/03/05 01:35:53;;;;;;;27.48;13.93;;;-0.50;99.90;;;;;;5095663;28;20028;-88
2022/03/05 01:38:19;;;;;;;28.05;12.88;;;-0.40;99.90;;;;;;5096468;28;20077;-88
2022/03/05 01:40:45;;;;;;;28.02;13.50;;;-0.40;99.90;;;;;;5095400;28;20036;-89
2022/03/05 01:43:11;;;;;;;25.00;13.13;;;-0.50;99.90;;;;;;5095301;28;20031;-89
2022/03/05 01:45:38;;;;;;;26.08;14.13;;;-0.40;99.90;;;;;;5096173;28;20103;-89
2022/03/05 01:48:05;;;;;;;26.65;13.05;;;-0.40;99.90;;;;;;5096409;28;20020;-90
2022/03/05 01:50:32;;;;;;;27.48;13.07;;;-0.50;99.90;;;;;;5095603;28;20020;-89
2022/03/05 01:52:57;;;;;;;24.80;12.15;;;-0.40;99.90;;;;;;5094958;28;20024;-89
2022/03/05 01:55:24;;;;;;;22.60;12.35;;;-0.50;99.90;;;;;;5093645;28;20303;-89
2022/03/05 01:57:51;;;;;;;23.80;12.45;;;-0.60;99.90;;;;;;5095872;28;20028;-89
2022/03/05 02:00:17;;;;;;;24.73;12.68;;;-0.60;99.90;;;;;;5095049;28;20063;-90
2022/03/05 02:02:45;;;;;;;27.15;12.68;;;-0.60;99.90;;;;;;5096082;28;20037;-89
2022/03/05 02:05:12;;;;;;;25.23;12.80;;;-0.60;99.90;;;;;;5093579;28;20141;-89
2022/03/05 02:07:38;;;;;;;27.92;13.93;;;-0.60;99.90;;;;;;5093605;28;20024;-89
2022/03/05 02:10:06;;;;;;;24.58;12.57;;;-0.60;99.90;;;;;;5094201;28;20039;-89
2022/03/05 02:12:33;;;;;;;25.90;12.63;;;-0.70;99.90;;;;;;5095861;28;20020;-88
2022/03/05 02:15:00;;;;;;;26.83;13.52;;;-0.60;99.90;;;;;;5094914;28;20039;-90
2022/03/05 02:17:29;;;;;;;26.15;13.60;;;-0.60;99.90;;;;;;5094757;28;20487;-88
2022/03/05 02:19:56;;;;;;;27.20;13.43;;;-0.60;99.90;;;;;;5094513;28;20550;-88
2022/03/05 02:22:23;;;;;;;23.23;12.80;;;-0.60;99.90;;;;;;5094488;28;20028;-88
2022/03/05 02:24:55;;;;;;;24.50;12.50;;;-0.60;99.90;;;;;;5095746;28;20030;-89
2022/03/05 02:27:23;;;;;;;25.75;12.77;;;-0.60;99.90;;;;;;5093339;28;20048;-88
2022/03/05 02:29:50;;;;;;;25.45;12.68;;;-0.70;99.90;;;;;;5095446;28;20016;-89
2022/03/05 02:32:15;;;;;;;22.90;12.88;;;-0.70;99.90;;;;;;5095502;28;20024;-88
2022/03/05 02:34:41;;;;;;;22.63;13.05;;;-0.70;99.90;;;;;;5095773;28;20031;-88
2022/03/05 02:37:12;;;;;;;22.63;11.85;;;-0.70;99.90;;;;;;5094009;28;20024;-88
2022/03/05 02:39:37;;;;;;;24.55;12.95;;;-0.80;99.90;;;;;;5095327;28;20107;-88
2022/03/05 02:42:04;;;;;;;25.40;12.45;;;-0.80;99.90;;;;;;5095032;28;20461;-88
2022/03/05 02:44:29;;;;;;;23.23;13.07;;;-0.80;99.90;;;;;;5095257;28;20027;-88
2022/03/05 02:46:56;;;;;;;26.08;12.50;;;-0.70;99.90;;;;;;5094044;28;20498;-88
2022/03/05 02:49:21;;;;;;;24.92;11.95;;;-0.70;99.90;;;;;;5093996;28;20032;-88
2022/03/05 02:51:47;;;;;;;21.80;12.05;;;-0.70;99.90;;;;;;5093997;28;20047;-88
2022/03/05 02:54:13;;;;;;;25.08;12.25;;;-0.70;99.90;;;;;;5093816;28;20062;-88
2022/03/05 02:56:39;;;;;;;23.05;11.68;;;-0.70;99.90;;;;;;5095370;28;20028;-88
2022/03/05 02:59:05;;;;;;;21.23;11.02;;;-0.70;99.90;;;;;;5093950;28;20028;-88
2022/03/05 03:01:30;;;;;;;21.35;10.80;;;-0.70;99.90;;;;;;5093830;28;20478;-88
2022/03/05 03:03:56;;;;;;;24.60;11.27;;;-0.70;99.90;;;;;;5093706;28;20024;-88
2022/03/05 03:06:22;;;;;;;23.67;11.20;;;-0.70;99.90;;;;;;5093732;28;20389;-88
2022/03/05 03:08:48;;;;;;;27.50;11.95;;;-0.80;99.90;;;;;;5093710;28;20533;-88
2022/03/05 03:11:13;;;;;;;22.92;11.20;;;-0.80;99.90;;;;;;5095193;28;20493;-88
2022/03/05 03:13:39;;;;;;;25.50;11.65;;;-0.70;99.90;;;;;;5093805;28;20020;-87
2022/03/05 03:16:05;;;;;;;23.88;11.95;;;-0.70;99.90;;;;;;5093828;28;20028;-88
2022/03/05 03:18:31;;;;;;;22.00;10.73;;;-0.70;99.90;;;;;;5093536;28;20523;-88
2022/03/05 03:20:56;;;;;;;25.08;11.73;;;-0.70;99.90;;;;;;5093874;28;20028;-88
2022/03/05 03:23:22;;;;;;;24.52;11.00;;;-0.70;99.90;;;;;;5093504;28;20020;-89
2022/03/05 03:25:48;;;;;;;20.55;10.30;;;-0.80;99.90;;;;;;5094738;28;20073;-88
2022/03/05 03:28:14;;;;;;;23.42;11.40;;;-0.80;99.90;;;;;;5094572;28;20424;-87
2022/03/05 03:30:39;;;;;;;23.08;10.88;;;-0.80;99.90;;;;;;5094547;28;20016;-88
2022/03/05 03:33:05;;;;;;;22.38;10.13;;;-0.70;99.90;;;;;;5093747;28;20016;-88
2022/03/05 03:35:31;;;;;;;24.02;11.82;;;-0.80;99.90;;;;;;5093181;28;20020;-88
2022/03/05 03:37:57;;;;;;;22.13;10.50;;;-0.80;99.90;;;;;;5093268;28;20020;-89
2022/03/05 03:40:23;;;;;;;20.58;10.32;;;-0.80;99.90;;;;;;5093349;28;20020;-87
2022/03/05 03:42:50;;;;;;;20.25;9.95;;;-0.80;99.90;;;;;;5093377;28;20024;-87
2022/03/05 03:45:18;;;;;;;25.73;10.75;;;-0.80;99.90;;;;;;5093385;28;20493;-87
2022/03/05 03:47:46;;;;;;;21.60;10.48;;;-0.80;99.90;;;;;;5093331;28;20024;-87
2022/03/05 03:50:13;;;;;;;21.17;10.93;;;-0.80;99.90;;;;;;5093306;28;20111;-87
2022/03/05 03:52:39;;;;;;;21.55;10.27;;;-0.80;99.90;;;;;;5093381;28;20049;-87
2022/03/05 03:55:08;;;;;;;23.20;10.50;;;-0.80;99.90;;;;;;5093492;28;20020;-88
2022/03/05 03:57:34;;;;;;;21.23;9.88;;;-0.80;99.90;;;;;;5093398;28;20105;-88
2022/03/05 04:00:00;;;;;;;18.58;9.45;;;-0.80;99.90;;;;;;5093472;28;20028;-88
2022/03/05 04:02:26;;;;;;;19.85;9.73;;;-0.80;99.90;;;;;;5094389;28;20024;-88
2022/03/05 04:04:51;;;;;;;21.17;10.25;;;-0.80;99.90;;;;;;5094365;28;20024;-88
2022/03/05 04:10:05;;;;;;;21.42;9.77;;;-0.70;99.90;;;;;;5094931;28;20038;-89
2022/03/05 04:12:31;;;;;;;19.25;9.52;;;-0.80;99.90;;;;;;5093168;28;20016;-88
2022/03/05 04:14:58;;;;;;;21.88;9.77;;;-0.80;99.90;;;;;;5094391;28;20024;-88
2022/03/05 04:17:24;;;;;;;19.08;9.65;;;-0.80;99.90;;;;;;5092555;28;20020;-88
2022/03/05 04:19:50;;;;;;;19.23;9.60;;;-0.80;99.90;;;;;;5092647;28;20090;-88
2022/03/05 04:22:18;;;;;;;20.75;9.35;;;-0.80;99.90;;;;;;5093756;28;20031;-88
2022/03/05 04:24:44;;;;;;;22.20;10.48;;;-0.90;99.90;;;;;;5092469;28;20110;-88
2022/03/05 04:27:10;;;;;;;18.35;9.35;;;-0.90;99.90;;;;;;5092601;28;20131;-89
2022/03/05 04:29:36;;;;;;;19.42;9.65;;;-0.90;99.90;;;;;;5109817;28;20035;-89
2022/03/05 04:32:02;;;;;;;18.45;9.50;;;-0.80;99.90;;;;;;5093032;28;20051;-88
2022/03/05 04:34:28;;;;;;;17.30;9.05;;;-0.80;99.90;;;;;;5093146;28;20065;-89
2022/03/05 04:36:54;;;;;;;17.77;8.88;;;-0.80;99.90;;;;;;5092937;28;20119;-88
2022/03/05 04:39:20;;;;;;;20.75;9.93;;;-0.70;99.90;;;;;;5093098;28;20088;-88
2022/03/05 04:41:45;;;;;;;18.23;9.50;;;-0.70;99.90;;;;;;5092819;28;20158;-88
2022/03/05 04:44:11;;;;;;;18.75;9.00;;;-0.70;99.90;;;;;;5092776;28;20157;-88
2022/03/05 04:46:37;;;;;;;17.75;8.55;;;-0.80;99.90;;;;;;5092940;28;20044;-88
2022/03/05 04:49:03;;;;;;;17.02;8.90;;;-0.70;99.90;;;;;;5092818;28;20035;-88
2022/03/05 04:51:29;;;;;;;18.33;9.55;;;-0.80;99.90;;;;;;5096206;28;20026;-89
2022/03/05 04:53:55;;;;;;;19.50;8.85;;;-0.80;99.90;;;;;;5096455;28;20099;-89
2022/03/05 04:56:20;;;;;;;15.73;8.73;;;-0.70;99.90;;;;;;5097596;28;20028;-88
2022/03/05 04:58:46;;;;;;;14.85;8.30;;;-0.80;99.90;;;;;;5097351;28;20020;-88
2022/03/05 05:01:12;;;;;;;16.45;8.30;;;-0.70;99.90;;;;;;5095789;28;20466;-88
2022/03/05 05:03:38;;;;;;;17.52;8.45;;;-0.70;99.90;;;;;;5095603;28;20391;-88
2022/03/05 05:06:05;;;;;;;18.17;9.10;;;-0.60;99.90;;;;;;5095495;28;20537;-89
2022/03/05 05:08:31;;;;;;;18.05;7.97;;;-0.60;99.90;;;;;;5095669;28;20466;-89
2022/03/05 05:10:57;;;;;;;15.00;7.82;;;-0.60;99.90;;;;;;5096699;28;20029;-89
2022/03/05 05:13:23;;;;;;;16.40;8.05;;;-0.60;99.90;;;;;;5095709;28;20024;-89
2022/03/05 05:15:48;;;;;;;17.05;7.57;;;-0.50;99.90;;;;;;5095648;28;20463;-88
2022/03/05 05:18:14;;;;;;;14.85;7.70;;;-0.50;99.90;;;;;;5095511;28;20016;-88
2022/03/05 05:20:40;;;;;;;15.35;8.23;;;-0.50;99.90;;;;;;5095526;28;20028;-88
2022/03/05 05:23:06;;;;;;;17.38;8.15;;;-0.50;99.90;;;;;;5096374;28;20027;-88
2022/03/05 05:25:32;;;;;;;14.85;8.18;;;-0.50;99.90;;;;;;5093472;28;20348;-87
2022/03/05 05:27:57;;;;;;;14.18;7.72;;;-0.40;99.90;;;;;;5096387;28;20017;-87
2022/03/05 05:30:23;;;;;;;14.23;7.57;;;-0.40;99.90;;;;;;5096595;28;20023;-89
2022/03/05 05:32:49;;;;;;;12.70;7.50;;;-0.50;99.90;;;;;;5095552;28;20030;-88
2022/03/05 05:35:15;;;;;;;15.00;7.38;;;-0.40;99.90;;;;;;5095817;28;20034;-87
2022/03/05 05:37:41;;;;;;;18.05;8.07;;;-0.40;99.90;;;;;;5095622;28;20031;-88
2022/03/05 05:40:08;;;;;;;14.32;7.25;;;-0.40;99.90;;;;;;5096030;28;20035;-88
2022/03/05 05:42:34;;;;;;;14.07;7.03;;;-0.40;99.90;;;;;;5095484;28;20028;-88
2022/03/05 05:44:59;;;;;;;15.13;7.47;;;-0.50;99.90;;;;;;5095411;28;20467;-88
2022/03/05 05:47:25;;;;;;;15.15;7.38;;;-0.40;99.90;;;;;;5095742;28;20032;-88
2022/03/05 05:49:51;;;;;;;15.98;8.23;;;-0.40;99.90;;;;;;5096762;28;20103;-88
2022/03/05 05:52:18;;;;;;;12.55;6.65;;;-0.40;99.90;;;;;;5096368;28;20348;-87
2022/03/05 05:54:44;;;;;;;14.52;7.38;;;-0.40;99.90;;;;;;5096621;28;20032;-90
2022/03/05 05:57:10;;;;;;;17.75;7.88;;;-0.30;99.90;;;;;;5096438;28;20027;-89
2022/03/05 05:59:36;;;;;;;15.05;8.13;;;-0.20;99.90;;;;;;5096288;28;20043;-89
2022/03/05 06:02:03;;;;;;;16.35;7.68;;;-0.30;99.90;;;;;;5095007;28;20032;-89
2022/03/05 06:04:29;;;;;;;17.75;8.93;;;-0.20;99.90;;;;;;5096188;28;20020;-89
2022/03/05 06:06:54;;;;;;;15.90;8.35;;;-0.20;99.90;;;;;;5094964;28;20050;-90
2022/03/05 06:09:20;;;;;;;16.42;8.07;;;-0.30;99.90;;;;;;5094836;28;20036;-88
2022/03/05 06:11:46;;;;;;;13.57;7.47;;;-0.30;99.90;;;;;;5096217;28;20085;-88
2022/03/05 06:14:12;;;;;;;15.93;7.03;;;-0.30;99.90;;;;;;5094977;28;20031;-90
2022/03/05 06:16:38;;;;;;;13.73;7.13;;;-0.20;99.90;;;;;;5095220;28;20032;-89
2022/03/05 06:19:04;;;;;;;12.82;7.43;;;-0.20;99.90;;;;;;5095987;28;20028;-88
2022/03/05 06:21:29;;;;;;;13.98;7.63;;;-0.20;99.90;;;;;;5094613;28;20031;-89
2022/03/05 06:23:55;;;;;;;15.77;7.75;;;-0.20;99.90;;;;;;5094854;28;20020;-89
2022/03/05 06:26:21;;;;;;;15.68;7.25;;;-0.20;99.90;;;;;;5095347;28;20039;-89
2022/03/05 06:28:47;;;;;;;13.23;7.45;;;-0.20;99.90;;;;;;5095585;28;20016;-89
2022/03/05 06:31:12;;;;;;;14.05;7.18;;;-0.20;99.90;;;;;;5094272;28;20068;-93
2022/03/05 06:33:39;;;;;;;14.88;7.75;;;-0.10;99.90;;;;;;5094734;28;20020;-90
2022/03/05 06:36:05;;;;;;;13.10;7.68;;;-0.20;99.90;;;;;;5094325;28;20024;-90
2022/03/05 06:38:30;;;;;;;18.52;9.25;;;-0.20;99.90;;;;;;5095378;28;20058;-89
2022/03/05 06:40:56;;;;;;;18.95;8.80;;;-0.10;99.90;;;;;;5094359;28;20020;-88
2022/03/05 06:43:22;;;;;;;20.90;8.75;;;-0.20;99.90;;;;;;5095441;28;20088;-89
2022/03/05 06:45:48;;;;;;;15.25;8.35;;;-0.20;99.90;;;;;;5094217;28;20506;-90
2022/03/05 06:48:14;;;;;;;16.17;7.82;;;-0.10;99.90;;;;;;5093967;28;20027;-88
2022/03/05 06:50:40;;;;;;;15.38;8.93;;;-0.10;99.90;;;;;;5093940;28;20024;-88
2022/03/05 06:53:06;;;;;;;17.67;9.02;;;0.00;99.90;;;;;;5094151;28;20028;-89
2022/03/05 06:55:32;;;;;;;18.25;8.80;;;0.00;99.90;;;;;;5095328;28;20023;-88
2022/03/05 06:57:58;;;;;;;23.02;11.48;;;0.10;99.90;;;;;;5095147;28;20054;-88
2022/03/05 07:00:23;;;;;;;22.08;10.48;;;0.10;99.90;;;;;;5095643;28;20032;-88
2022/03/05 07:02:49;;;;;;;19.77;10.80;;;0.10;99.90;;;;;;5095876;28;20076;-89
2022/03/05 07:05:15;;;;;;;24.10;9.93;;;0.10;99.90;;;;;;5096043;28;20024;-88
2022/03/05 07:07:42;;;;;;;20.55;9.43;;;0.10;99.90;;;;;;5093795;28;20042;-88
2022/03/05 07:10:09;;;;;;;19.10;9.55;;;0.10;99.90;;;;;;5094030;28;20028;-88
2022/03/05 07:12:35;;;;;;;15.57;9.00;;;0.20;99.90;;;;;;5093216;28;20020;-87
2022/03/05 07:15:01;;;;;;;15.93;8.90;;;0.20;99.90;;;;;;5093820;28;20024;-87
2022/03/05 07:17:27;;;;;;;18.77;8.50;;;0.20;99.90;;;;;;5094378;28;20024;-88
2022/03/05 07:19:56;;;;;;;16.10;8.57;;;0.20;99.90;;;;;;5093849;28;20493;-89
2022/03/05 07:22:23;;;;;;;13.02;8.20;;;0.20;99.90;;;;;;5093589;28;20024;-88
2022/03/05 07:24:49;;;;;;;18.77;9.10;;;0.20;99.90;;;;;;5093346;28;20027;-88
2022/03/05 07:27:16;;;;;;;15.70;7.95;;;0.20;99.90;;;;;;5093224;28;20051;-89
2022/03/05 07:29:43;;;;;;;14.80;8.15;;;0.30;99.90;;;;;;5093643;28;20031;-88
2022/03/05 07:32:13;;;;;;;16.20;8.73;;;0.30;99.90;;;;;;5093448;28;20028;-88
2022/03/05 07:34:39;;;;;;;15.82;8.20;;;0.40;99.90;;;;;;5094512;28;20526;-88
2022/03/05 07:37:04;;;;;;;13.57;8.27;;;0.40;99.90;;;;;;5094860;28;20024;-88
2022/03/05 07:39:30;;;;;;;13.23;7.80;;;0.40;99.90;;;;;;5094737;28;20360;-87
2022/03/05 07:41:56;;;;;;;11.95;7.00;;;0.40;99.90;;;;;;5094564;28;20382;-87
2022/03/05 07:44:22;;;;;;;15.25;8.10;;;0.40;99.90;;;;;;5093295;28;20039;-86
2022/03/05 07:46:47;;;;;;;16.27;9.18;;;0.40;99.90;;;;;;5093336;28;20031;-88
2022/03/05 07:49:13;;;;;;;18.52;9.50;;;0.30;99.90;;;;;;5095000;28;20024;-86
2022/03/05 07:51:39;;;;;;;16.17;9.40;;;0.40;99.90;;;;;;5095321;28;20028;-87
2022/03/05 07:54:06;;;;;;;12.77;7.10;;;0.40;99.90;;;;;;5093163;28;20020;-88
2022/03/05 07:56:31;;;;;;;13.75;8.02;;;0.50;99.90;;;;;;5093232;28;20115;-87
2022/03/05 07:58:57;;;;;;;15.05;8.80;;;0.30;99.90;;;;;;5094944;28;20070;-87
2022/03/05 08:01:23;;;;;;;13.27;8.30;;;0.40;99.90;;;;;;5093008;28;20028;-88
2022/03/05 08:03:49;;;;;;;13.73;7.53;;;0.40;99.90;;;;;;5094442;28;20100;-88
2022/03/05 08:06:14;;;;;;;16.73;9.10;;;0.40;99.90;;;;;;5093226;28;20028;-88
2022/03/05 08:08:40;;;;;;;15.80;8.80;;;0.40;99.90;;;;;;5093255;28;20428;-87
2022/03/05 08:11:07;;;;;;;13.77;7.45;;;0.40;99.90;;;;;;5094713;28;20020;-89
2022/03/05 08:13:33;;;;;;;15.13;8.73;;;0.40;99.90;;;;;;5092941;28;20386;-89
2022/03/05 08:15:58;;;;;;;14.60;8.57;;;0.40;99.90;;;;;;5093572;28;20031;-89
2022/03/05 08:18:24;;;;;;;14.32;8.50;;;0.40;99.90;;;;;;5092863;28;20024;-88
2022/03/05 08:20:50;;;;;;;15.98;8.10;;;0.40;99.90;;;;;;5093014;28;20028;-88
2022/03/05 08:23:16;;;;;;;16.85;8.60;;;0.40;99.90;;;;;;5093064;28;20031;-88
2022/03/05 08:25:42;;;;;;;17.15;8.43;;;0.40;99.90;;;;;;5095492;28;20048;-88
2022/03/05 08:28:08;;;;;;;15.63;7.68;;;0.40;99.90;;;;;;5096837;28;20442;-90
2022/03/05 08:30:34;;;;;;;14.40;7.93;;;0.40;99.90;;;;;;5097892;28;20052;-89
2022/03/05 08:33:00;;;;;;;14.75;8.80;;;0.30;99.90;;;;;;5096779;28;20048;-89
2022/03/05 08:35:25;;;;;;;14.48;8.43;;;0.40;99.90;;;;;;5096658;28;20110;-89
2022/03/05 08:37:52;;;;;;;13.07;7.85;;;0.40;99.90;;;;;;5096659;28;20474;-88
2022/03/05 08:40:19;;;;;;;18.10;8.90;;;0.30;99.90;;;;;;5097637;28;20467;-87
2022/03/05 08:42:48;;;;;;;19.25;9.18;;;0.40;99.90;;;;;;5097556;28;20028;-87
2022/03/05 08:45:14;;;;;;;16.80;9.00;;;0.50;99.90;;;;;;5096438;28;20028;-87
2022/03/05 08:47:41;;;;;;;17.10;8.18;;;0.50;99.90;;;;;;5097536;28;20028;-87
2022/03/05 08:50:07;;;;;;;18.48;8.63;;;0.50;99.90;;;;;;5096158;28;20027;-89
2022/03/05 08:52:36;;;;;;;14.65;8.45;;;0.60;99.90;;;;;;5096130;28;20363;-88
2022/03/05 08:55:10;;;;;;;18.50;9.90;;;0.50;99.90;;;;;;5096245;28;20020;-87
2022/03/05 08:57:37;;;;;;;17.38;9.15;;;0.50;99.90;;;;;;5096248;28;20471;-89
2022/03/05 09:00:06;;;;;;;18.33;9.63;;;0.50;99.90;;;;;;5096007;28;20024;-87
2022/03/05 09:02:31;;;;;;;15.57;8.57;;;0.50;99.90;;;;;;5095925;28;20024;-88
2022/03/05 09:04:57;;;;;;;15.48;8.25;;;0.50;99.90;;;;;;5097267;28;20020;-86
2022/03/05 09:07:23;;;;;;;17.38;9.15;;;0.50;99.90;;;;;;5097250;28;20420;-86
2022/03/05 09:09:49;;;;;;;14.23;7.55;;;0.50;99.90;;;;;;5097267;28;20051;-86
2022/03/05 09:12:14;;;;;;;15.57;8.48;;;0.50;99.90;;;;;;5095736;28;20135;-86
2022/03/05 09:14:40;;;;;;;14.60;8.35;;;0.60;99.90;;;;;;5095863;28;20028;-87
2022/03/05 09:17:06;;;;;;;17.95;7.78;;;0.50;99.90;;;;;;5095630;28;20056;-85
2022/03/05 09:19:33;;;;;;;14.00;8.18;;;0.50;99.90;;;;;;5095797;28;20032;-85
2022/03/05 09:21:58;;;;;;;16.38;9.30;;;0.50;99.90;;;;;;5095542;28;20028;-85
2022/03/05 09:24:24;;;;;;;14.73;7.70;;;0.60;99.90;;;;;;5096022;28;20035;-89
2022/03/05 09:26:50;;;;;;;17.10;9.05;;;0.50;99.90;;;;;;5096119;28;20058;-87
2022/03/05 09:29:16;;;;;;;17.95;8.82;;;0.60;99.90;;;;;;5094849;28;20475;-87
2022/03/05 09:31:42;;;;;;;12.65;8.00;;;0.60;99.90;;;;;;5095703;28;20444;-86
2022/03/05 09:34:08;;;;;;;16.55;8.25;;;0.60;99.90;;;;;;5095310;28;20024;-87
2022/03/05 09:36:34;;;;;;;36.03;14.90;;;0.60;99.90;;;;;;5095078;28;20393;-86
2022/03/05 09:39:00;;;;;;;98.68;29.80;;;0.60;99.90;;;;;;5095344;28;20463;-86
2022/03/05 09:41:26;;;;;;;74.20;24.65;;;0.60;99.90;;;;;;5096414;28;20103;-86
2022/03/05 09:43:52;;;;;;;56.55;22.13;;;0.50;99.90;;;;;;5096436;28;20051;-86
2022/03/05 09:46:19;;;;;;;49.03;19.13;;;0.60;99.90;;;;;;5095308;28;20020;-87
2022/03/05 09:48:46;;;;;;;31.10;14.35;;;0.60;99.90;;;;;;5096245;28;20505;-86
2022/03/05 09:51:11;;;;;;;35.20;15.13;;;0.70;99.90;;;;;;5095088;28;20070;-86
2022/03/05 09:53:37;;;;;;;20.10;11.32;;;0.80;99.90;;;;;;5094936;28;20020;-87
2022/03/05 09:56:04;;;;;;;17.02;9.77;;;0.80;99.90;;;;;;5096494;28;20020;-89
2022/03/05 09:58:30;;;;;;;26.42;13.43;;;0.70;99.90;;;;;;5094794;28;20039;-88
2022/03/05 10:00:56;;;;;;;27.52;14.82;;;0.70;99.90;;;;;;5095090;28;20028;-90
2022/03/05 10:03:22;;;;;;;17.70;10.18;;;0.70;99.90;;;;;;5094927;28;20072;-89
2022/03/05 10:05:48;;;;;;;19.25;10.63;;;0.70;99.90;;;;;;5094781;28;20020;-89
2022/03/05 10:08:15;;;;;;;17.92;10.10;;;0.60;99.90;;;;;;5094538;28;20027;-89
2022/03/05 10:10:50;;;;;;;24.42;11.25;;;0.60;99.90;;;;;;5085473;28;20039;-89
2022/03/05 10:13:26;;;;;;;24.15;12.70;;;0.70;99.90;;;;;;5094665;28;20016;-90
2022/03/05 10:15:57;;;;;;;28.83;16.00;;;0.70;99.90;;;;;;5094606;28;20081;-89
2022/03/05 10:18:33;;;;;;;22.85;12.02;;;0.70;99.90;;;;;;5096099;28;20057;-89
2022/03/05 10:21:01;;;;;;;22.05;12.18;;;0.60;99.90;;;;;;5095637;28;20020;-89
2022/03/05 10:23:30;;;;;;;22.65;12.15;;;0.70;99.90;;;;;;5094753;28;20024;-91
2022/03/05 10:25:56;;;;;;;23.83;12.40;;;0.70;99.90;;;;;;5094306;28;20040;-88
2022/03/05 10:28:26;;;;;;;22.27;11.77;;;0.70;99.90;;;;;;5095272;28;20121;-89
2022/03/05 10:30:58;;;;;;;25.45;12.45;;;0.50;99.90;;;;;;5094318;28;20052;-89
2022/03/05 10:33:32;;;;;;;26.40;12.05;;;0.50;99.90;;;;;;5094402;28;20055;-89
2022/03/05 10:36:09;;;;;;;24.17;11.63;;;0.60;99.90;;;;;;5095326;28;20030;-90
2022/03/05 10:38:49;;;;;;;21.95;11.25;;;0.70;99.90;;;;;;5094230;28;20026;-90
2022/03/05 10:41:21;;;;;;;19.85;10.73;;;0.60;99.90;;;;;;5094304;28;20458;-88
2022/03/05 10:44:06;;;;;;;29.52;15.38;;;0.60;99.90;;;;;;5094249;28;20024;-88
2022/03/05 10:46:54;;;;;;;20.23;10.90;;;0.70;99.90;;;;;;5094069;28;20024;-88
2022/03/05 10:49:36;;;;;;;21.45;11.27;;;0.80;99.90;;;;;;5073676;28;20059;-89
2022/03/05 10:52:06;;;;;;;20.45;9.95;;;0.80;99.90;;;;;;5073985;28;20104;-89
2022/03/05 10:54:40;;;;;;;20.05;11.02;;;0.80;99.90;;;;;;5103781;28;20028;-89
2022/03/05 10:57:23;;;;;;;23.15;12.25;;;0.80;99.90;;;;;;5073634;28;20039;-90
2022/03/05 11:00:08;;;;;;;18.23;10.38;;;0.80;99.90;;;;;;5089809;28;20024;-91
2022/03/05 11:02:52;;;;;;;20.27;11.05;;;1.00;99.90;;;;;;5086594;28;20036;-89
2022/03/05 11:05:19;;;;;;;25.70;14.38;;;1.00;99.90;;;;;;5093311;28;20036;-88
2022/03/05 11:07:49;;;;;;;53.30;25.67;;;0.90;99.90;;;;;;5093429;28;20069;-89
2022/03/05 11:10:19;;;;;;;39.05;21.25;;;1.00;99.90;;;;;;5093986;28;20028;-91
2022/03/05 11:12:51;;;;;;;20.08;11.60;;;0.90;99.90;;;;;;5093055;28;20028;-90
2022/03/05 11:15:18;;;;;;;34.88;15.52;;;0.90;99.90;;;;;;5093498;28;20052;-90
2022/03/05 11:17:47;;;;;;;32.20;15.57;;;0.80;99.90;;;;;;5093611;28;20466;-90
2022/03/05 11:20:14;;;;;;;26.60;14.52;;;0.90;99.90;;;;;;5093588;28;20028;-90
2022/03/05 11:22:46;;;;;;;21.02;12.25;;;1.00;99.90;;;;;;5093730;28;20075;-90
2022/03/05 11:25:16;;;;;;;32.00;17.60;;;1.10;99.90;;;;;;5093295;28;20115;-89
2022/03/05 11:28:00;;;;;;;22.08;11.38;;;1.20;99.90;;;;;;5092995;28;20032;-88
2022/03/05 11:30:29;;;;;;;24.40;11.70;;;1.10;99.90;;;;;;5093022;28;20020;-89
2022/03/05 11:32:55;;;;;;;18.85;10.27;;;1.20;99.90;;;;;;5093343;28;20019;-89
2022/03/05 11:35:24;;;;;;;20.17;11.50;;;1.20;99.90;;;;;;5093293;28;20093;-90
2022/03/05 11:37:52;;;;;;;22.52;10.18;;;1.20;99.90;;;;;;5093207;28;20062;-90
2022/03/05 11:40:37;;;;;;;21.05;11.25;;;1.40;99.90;;;;;;5093599;28;20028;-90
2022/03/05 11:43:23;;;;;;;14.43;8.35;;;1.40;99.90;;;;;;5093862;28;20352;-91
2022/03/05 11:45:57;;;;;;;19.17;10.10;;;1.40;99.90;;;;;;5093493;28;20024;-89
2022/03/05 11:48:24;;;;;;;15.40;8.93;;;1.50;99.90;;;;;;5093485;28;20111;-89
2022/03/05 11:50:52;;;;;;;15.63;8.40;;;1.50;99.90;;;;;;5092988;28;20085;-90
2022/03/05 11:53:19;;;;;;;12.43;7.35;;;1.50;99.90;;;;;;5092946;28;20035;-89
2022/03/05 11:55:47;;;;;;;16.08;8.18;;;1.50;99.90;;;;;;5093234;28;20360;-91
2022/03/05 11:58:13;;;;;;;13.43;8.50;;;1.50;99.90;;;;;;5093056;28;20075;-92
2022/03/05 12:00:46;;;;;;;11.27;7.30;;;1.50;99.90;;;;;;5097156;28;20106;-92
2022/03/05 12:03:22;;;;;;;10.77;7.00;;;1.50;99.90;;;;;;5097418;28;20020;-87
2022/03/05 12:05:48;;;;;;;9.43;5.75;;;1.30;99.90;;;;;;5097130;28;20039;-88
2022/03/05 12:08:24;;;;;;;11.60;6.07;;;1.20;99.90;;;;;;5096988;28;20028;-88
2022/03/05 12:11:12;;;;;;;9.98;6.68;;;1.10;99.90;;;;;;5097345;28;20032;-90
2022/03/05 12:13:42;;;;;;;11.93;6.82;;;1.10;99.90;;;;;;5096928;28;20024;-91
2022/03/05 12:16:25;;;;;;;13.63;6.18;;;1.00;99.90;;;;;;5097000;28;20061;-89
2022/03/05 12:18:54;;;;;;;9.25;5.25;;;1.00;99.90;;;;;;5096528;28;20055;-89
2022/03/05 12:21:33;;;;;;;9.55;5.43;;;0.90;99.90;;;;;;5097012;28;20107;-89
2022/03/05 12:24:10;;;;;;;8.68;5.55;;;0.90;99.90;;;;;;5096768;28;20433;-91
2022/03/05 12:26:47;;;;;;;12.30;7.10;;;1.00;99.90;;;;;;5096656;28;20044;-88
2022/03/05 12:29:13;;;;;;;11.57;6.13;;;1.00;99.90;;;;;;5098211;28;20091;-89
2022/03/05 12:31:43;;;;;;;9.57;5.30;;;1.10;99.90;;;;;;5097993;28;20477;-89
2022/03/05 12:34:11;;;;;;;8.00;5.13;;;1.00;99.90;;;;;;5096435;28;20028;-90
2022/03/05 12:36:45;;;;;;;9.52;5.45;;;1.10;99.90;;;;;;5096477;28;20101;-88
2022/03/05 12:39:12;;;;;;;9.93;5.40;;;1.10;99.90;;;;;;5097510;28;20500;-88